Time,TemperatureF,DewpointF,PressureIn,WindDirection,WindDirectionDegrees,WindSpeedMPH,WindSpeedGustMPH,Humidity,HourlyPrecipIn,Conditions,Clouds,dailyrainin,SoftwareType,DateUTC
2013-05-13 00:02:00,47.0,47.0,30.16,NNW,340,0.0,2.0,98,-99.99,,,-99.99,,2013-05-13 05:02:00,
2013-05-13 00:12:00,47.0,47.0,30.15,NW,315,0.0,2.0,98,-99.99,,,-99.99,,2013-05-13 05:12:00,
2013-05-13 00:21:00,47.0,47.0,30.15,NW,315,0.0,2.0,98,-99.99,,,-99.99,,2013-05-13 05:21:00,
2013-05-13 00:32:00,46.0,46.0,30.15,West,265,0.0,1.0,99,-99.99,,,-99.99,,2013-05-13 05:32:00,
2013-05-13 00:42:00,46.0,46.0,30.15,West,280,0.0,2.0,99,-99.99,,,-99.99,,2013-05-13 05:42:00,
2013-05-13 00:52:00,46.0,46.0,30.15,West,280,0.0,2.0,99,-99.99,,,-99.99,,2013-05-13 05:52:00,
2013-05-13 01:01:00,45.0,45.0,30.15,NW,305,0.0,2.0,99,-99.99,,,-99.99,,2013-05-13 06:01:00,
2013-05-13 01:12:00,45.0,-99.9,30.15,West,260,0.0,2.0,-999,-99.99,,,-99.99,,2013-05-13 06:12:00,
2013-05-13 01:22:00,45.0,-99.9,30.15,West,260,0.0,2.0,-999,-99.99,,,-99.99,,2013-05-13 06:22:00,
2013-05-13 01:32:00,44.0,-99.9,30.15,West,265,0.0,1.0,-999,-99.99,,,-99.99,,2013-05-13 06:32:00,
2013-05-13 01:42:00,44.0,-99.9,30.15,WNW,285,0.0,2.0,-999,-99.99,,,-99.99,,2013-05-13 06:42:00,
2013-05-13 01:52:00,44.0,-99.9,30.15,WNW,285,0.0,2.0,-999,-99.99,,,-99.99,,2013-05-13 06:52:00,
2013-05-13 02:01:00,44.0,-99.9,30.15,West,275,1.0,2.0,-999,-99.99,,,-99.99,,2013-05-13 07:01:00,
2013-05-13 02:11:00,44.0,-99.9,30.15,West,260,1.0,2.0,-999,-99.99,,,-99.99,,2013-05-13 07:11:00,
2013-05-13 02:22:00,44.0,-99.9,30.15,West,260,1.0,2.0,-999,-99.99,,,-99.99,,2013-05-13 07:22:00,
2013-05-13 02:32:00,43.0,-99.9,30.15,WNW,300,0.0,2.0,-999,-99.99,,,-99.99,,2013-05-13 07:32:00,
2013-05-13 02:42:00,43.0,-99.9,30.15,WSW,255,0.0,2.0,-999,-99.99,,,-99.99,,2013-05-13 07:42:00,
2013-05-13 02:52:00,43.0,-99.9,30.15,WSW,255,0.0,2.0,-999,-99.99,,,-99.99,,2013-05-13 07:52:00,
2013-05-13 03:02:00,42.0,-99.9,30.15,North,355,0.0,0.0,-999,-99.99,,,-99.99,,2013-05-13 08:02:00,
2013-05-13 03:11:00,42.0,-99.9,30.15,WNW,285,0.0,0.0,-999,-99.99,,,-99.99,,2013-05-13 08:11:00,
2013-05-13 03:22:00,42.0,-99.9,30.15,WNW,285,0.0,0.0,-999,-99.99,,,-99.99,,2013-05-13 08:22:00,
2013-05-13 03:32:00,42.0,-99.9,30.15,WSW,245,0.0,3.0,-999,-99.99,,,-99.99,,2013-05-13 08:32:00,
2013-05-13 03:42:00,42.0,-99.9,30.15,West,275,0.0,2.0,-999,-99.99,,,-99.99,,2013-05-13 08:42:00,
2013-05-13 03:52:00,42.0,-99.9,30.15,West,275,0.0,2.0,-999,-99.99,,,-99.99,,2013-05-13 08:52:00,
2013-05-13 04:01:00,41.0,-99.9,30.16,WNW,295,0.0,0.0,-999,-99.99,,,-99.99,,2013-05-13 09:01:00,
2013-05-13 04:11:00,41.0,-99.9,30.16,West,280,0.0,0.0,-999,-99.99,,,-99.99,,2013-05-13 09:11:00,
2013-05-13 04:22:00,41.0,-99.9,30.16,West,280,0.0,0.0,-999,-99.99,,,-99.99,,2013-05-13 09:22:00,
2013-05-13 04:33:00,41.0,-99.9,30.16,NW,305,0.0,1.0,-999,-99.99,,,-99.99,,2013-05-13 09:33:00,
2013-05-13 04:42:00,41.0,-99.9,30.15,WSW,245,1.0,3.0,-999,-99.99,,,-99.99,,2013-05-13 09:42:00,
2013-05-13 04:52:00,41.0,-99.9,30.15,WSW,245,1.0,3.0,-999,-99.99,,,-99.99,,2013-05-13 09:52:00,
2013-05-13 05:03:00,41.0,-99.9,30.15,SSW,200,1.0,2.0,-999,-99.99,,,-99.99,,2013-05-13 10:03:00,
2013-05-13 05:12:00,41.0,-99.9,30.15,SSE,160,0.0,2.0,-999,-99.99,,,-99.99,,2013-05-13 10:12:00,
2013-05-13 05:22:00,41.0,-99.9,30.15,SSE,160,0.0,2.0,-999,-99.99,,,-99.99,,2013-05-13 10:22:00,
2013-05-13 05:33:00,40.0,-99.9,30.15,WNW,295,0.0,1.0,-999,-99.99,,,-99.99,,2013-05-13 10:33:00,
2013-05-13 05:43:00,40.0,-99.9,30.15,SW,225,1.0,2.0,-999,-99.99,,,-99.99,,2013-05-13 10:43:00,
2013-05-13 05:53:00,40.0,-99.9,30.15,SW,225,1.0,2.0,-999,-99.99,,,-99.99,,2013-05-13 10:53:00,
2013-05-13 06:03:00,40.0,-99.9,30.16,West,270,1.0,2.0,-999,-99.99,,,-99.99,,2013-05-13 11:03:00,
2013-05-13 06:12:00,40.0,-99.9,30.16,North,350,0.0,3.0,-999,-99.99,,,-99.99,,2013-05-13 11:12:00,
2013-05-13 06:22:00,40.0,-99.9,30.16,North,350,0.0,3.0,-999,-99.99,,,-99.99,,2013-05-13 11:22:00,
2013-05-13 06:32:00,40.0,-99.9,30.16,South,190,0.0,0.0,-999,-99.99,,,-99.99,,2013-05-13 11:32:00,
2013-05-13 06:42:00,40.0,-99.9,30.16,South,190,0.0,0.0,-999,-99.99,,,-99.99,,2013-05-13 11:42:00,
2013-05-13 06:52:00,40.0,-99.9,30.16,South,190,0.0,0.0,-999,-99.99,,,-99.99,,2013-05-13 11:52:00,
2013-05-13 07:02:00,40.0,-99.9,30.17,SE,135,0.0,1.0,-999,-99.99,,,-99.99,,2013-05-13 12:02:00,
2013-05-13 07:12:00,41.0,-99.9,30.17,SSW,205,0.0,5.0,-999,-99.99,,,-99.99,,2013-05-13 12:12:00,
2013-05-13 07:21:00,41.0,-99.9,30.17,SSW,205,0.0,5.0,-999,-99.99,,,-99.99,,2013-05-13 12:21:00,
2013-05-13 07:32:00,42.0,-99.9,30.18,South,190,0.0,2.0,-999,-99.99,,,-99.99,,2013-05-13 12:32:00,
2013-05-13 07:42:00,42.0,-99.9,30.18,SW,215,1.0,2.0,-999,-99.99,,,-99.99,,2013-05-13 12:42:00,
2013-05-13 07:52:00,42.0,-99.9,30.18,SW,215,1.0,2.0,-999,-99.99,,,-99.99,,2013-05-13 12:52:00,
2013-05-13 08:01:00,45.0,-99.9,30.19,SSW,200,1.0,4.0,-999,-99.99,,,-99.99,,2013-05-13 13:01:00,
2013-05-13 08:11:00,47.0,46.0,30.19,SSW,195,1.0,5.0,99,-99.99,,,-99.99,,2013-05-13 13:11:00,
2013-05-13 08:21:00,47.0,46.0,30.19,SSW,195,1.0,5.0,99,-99.99,,,-99.99,,2013-05-13 13:21:00,
2013-05-13 08:30:00,54.0,53.0,30.20,South,175,2.0,6.0,97,-99.99,,,-99.99,,2013-05-13 13:30:00,
2013-05-13 08:31:00,48.0,48.0,30.20,WSW,240,2.0,6.0,98,-99.99,,,-99.99,,2013-05-13 13:31:00,
2013-05-13 08:42:00,49.0,49.0,30.20,West,280,2.0,7.0,98,-99.99,,,-99.99,,2013-05-13 13:42:00,
2013-05-13 08:52:00,49.0,49.0,30.20,West,280,2.0,7.0,98,-99.99,,,-99.99,,2013-05-13 13:52:00,
2013-05-13 09:00:00,58.0,57.0,30.20,SSW,205,2.0,7.0,97,-99.99,,,-99.99,,2013-05-13 14:00:00,
2013-05-13 09:02:00,53.0,52.0,30.20,SSW,210,1.0,4.0,98,-99.99,,,-99.99,,2013-05-13 14:02:00,
2013-05-13 09:11:00,54.0,53.0,30.20,South,175,2.0,6.0,97,-99.99,,,-99.99,,2013-05-13 14:11:00,
2013-05-13 09:22:00,54.0,53.0,30.20,South,175,2.0,6.0,97,-99.99,,,-99.99,,2013-05-13 14:22:00,
2013-05-13 09:42:00,58.0,57.0,30.20,SSW,205,2.0,7.0,97,-99.99,,,-99.99,,2013-05-13 14:42:00,
2013-05-13 09:52:00,58.0,57.0,30.20,SSW,205,2.0,7.0,97,-99.99,,,-99.99,,2013-05-13 14:52:00,
2013-05-13 10:11:00,61.0,60.0,30.20,West,270,3.0,10.0,96,-99.99,,,-99.99,,2013-05-13 15:11:00,
2013-05-13 10:21:00,61.0,60.0,30.20,West,270,3.0,10.0,96,-99.99,,,-99.99,,2013-05-13 15:21:00,
2013-05-13 10:31:00,63.0,62.0,30.20,SW,225,5.0,8.0,97,-99.99,,,-99.99,,2013-05-13 15:31:00,
2013-05-13 10:42:00,64.0,63.0,30.20,SW,215,4.0,6.0,96,-99.99,,,-99.99,,2013-05-13 15:42:00,
2013-05-13 10:50:00,66.0,65.0,30.20,North,0,4.0,7.0,97,-99.99,,,-99.99,,2013-05-13 15:50:00,
2013-05-13 10:53:00,64.0,63.0,30.20,SW,215,4.0,6.0,96,-99.99,,,-99.99,,2013-05-13 15:53:00,
2013-05-13 11:03:00,65.0,64.0,30.20,West,280,3.0,9.0,97,-99.99,,,-99.99,,2013-05-13 16:03:00,
2013-05-13 11:12:00,66.0,65.0,30.19,SW,230,6.0,10.0,97,-99.99,,,-99.99,,2013-05-13 16:12:00,
2013-05-13 11:21:00,66.0,65.0,30.19,SW,230,6.0,10.0,97,-99.99,,,-99.99,,2013-05-13 16:21:00,
2013-05-13 11:33:00,66.0,65.0,30.20,North,0,4.0,7.0,97,-99.99,,,-99.99,,2013-05-13 16:33:00,
2013-05-13 11:42:00,66.0,65.0,30.20,North,0,4.0,7.0,97,-99.99,,,-99.99,,2013-05-13 16:42:00,
2013-05-13 12:02:00,68.0,67.0,30.20,ENE,70,2.0,5.0,97,-99.99,,,-99.99,,2013-05-13 17:02:00,
2013-05-13 12:12:00,68.0,67.0,30.19,NNE,25,3.0,4.0,97,-99.99,,,-99.99,,2013-05-13 17:12:00,
2013-05-13 12:21:00,68.0,67.0,30.19,NNE,25,3.0,4.0,97,-99.99,,,-99.99,,2013-05-13 17:21:00,
2013-05-13 12:30:00,71.0,70.0,30.17,SSE,160,6.0,11.0,97,-99.99,,,-99.99,,2013-05-13 17:30:00,
2013-05-13 12:32:00,69.0,68.0,30.19,SW,230,4.0,8.0,97,-99.99,,,-99.99,,2013-05-13 17:32:00,
2013-05-13 12:42:00,70.0,69.0,30.18,SE,135,2.0,5.0,97,-99.99,,,-99.99,,2013-05-13 17:42:00,
2013-05-13 12:54:00,70.0,69.0,30.18,SE,135,2.0,5.0,97,-99.99,,,-99.99,,2013-05-13 17:54:00,
2013-05-13 13:03:00,71.0,70.0,30.17,WSW,245,3.0,7.0,97,-99.99,,,-99.99,,2013-05-13 18:03:00,
2013-05-13 13:12:00,71.0,70.0,30.17,SSE,160,6.0,11.0,97,-99.99,,,-99.99,,2013-05-13 18:12:00,
2013-05-13 13:23:00,71.0,70.0,30.17,SSE,160,6.0,11.0,97,-99.99,,,-99.99,,2013-05-13 18:23:00,
2013-05-13 13:42:00,72.0,71.0,30.16,South,170,5.0,11.0,97,-99.99,,,-99.99,,2013-05-13 18:42:00,
2013-05-13 13:52:00,72.0,71.0,30.16,South,170,5.0,11.0,97,-99.99,,,-99.99,,2013-05-13 18:52:00,
2013-05-13 14:01:00,72.0,72.0,30.15,SE,145,4.0,13.0,98,-99.99,,,-99.99,,2013-05-13 19:01:00,
2013-05-13 14:11:00,72.0,72.0,30.14,SSW,205,5.0,13.0,98,-99.99,,,-99.99,,2013-05-13 19:11:00,
2013-05-13 14:21:00,72.0,72.0,30.14,SSW,205,5.0,13.0,98,-99.99,,,-99.99,,2013-05-13 19:21:00,
2013-05-13 14:32:00,73.0,73.0,30.14,South,185,4.0,10.0,98,-99.99,,,-99.99,,2013-05-13 19:32:00,
2013-05-13 14:44:00,73.0,72.0,30.13,West,260,4.0,7.0,97,-99.99,,,-99.99,,2013-05-13 19:44:00,
2013-05-13 14:53:00,73.0,72.0,30.13,West,260,4.0,7.0,97,-99.99,,,-99.99,,2013-05-13 19:53:00,
2013-05-13 15:02:00,74.0,72.0,30.12,South,190,9.0,17.0,96,-99.99,,,-99.99,,2013-05-13 20:02:00,
2013-05-13 15:11:00,74.0,72.0,30.12,SSW,195,2.0,9.0,96,-99.99,,,-99.99,,2013-05-13 20:11:00,
2013-05-13 15:23:00,74.0,72.0,30.12,SSW,195,2.0,9.0,96,-99.99,,,-99.99,,2013-05-13 20:23:00,
2013-05-13 15:33:00,74.0,73.0,30.11,WSW,255,3.0,17.0,97,-99.99,,,-99.99,,2013-05-13 20:33:00,
2013-05-13 15:44:00,74.0,73.0,30.10,SE,145,2.0,9.0,96,-99.99,,,-99.99,,2013-05-13 20:44:00,
2013-05-13 15:53:00,74.0,73.0,30.10,SE,145,2.0,9.0,96,-99.99,,,-99.99,,2013-05-13 20:53:00,
2013-05-13 16:03:00,74.0,74.0,30.10,SSW,200,7.0,14.0,98,-99.99,,,-99.99,,2013-05-13 21:03:00,
2013-05-13 16:14:00,75.0,74.0,30.09,North,5,2.0,11.0,98,-99.99,,,-99.99,,2013-05-13 21:14:00,
2013-05-13 16:23:00,75.0,74.0,30.09,North,5,2.0,11.0,98,-99.99,,,-99.99,,2013-05-13 21:23:00,
2013-05-13 16:33:00,75.0,75.0,30.08,SSW,210,2.0,11.0,99,-99.99,,,-99.99,,2013-05-13 21:33:00,
2013-05-13 16:43:00,75.0,75.0,30.08,SSE,165,6.0,12.0,98,-99.99,,,-99.99,,2013-05-13 21:43:00,
2013-05-13 16:53:00,75.0,75.0,30.08,SSE,165,6.0,12.0,98,-99.99,,,-99.99,,2013-05-13 21:53:00,
2013-05-13 17:00:00,77.0,-99.9,30.06,South,185,4.0,12.0,-999,-99.99,,,-99.99,,2013-05-13 22:00:00,
2013-05-13 17:02:00,76.0,75.0,30.07,SSW,195,3.0,13.0,98,-99.99,,,-99.99,,2013-05-13 22:02:00,
2013-05-13 17:12:00,76.0,76.0,30.07,SE,130,3.0,13.0,98,-99.99,,,-99.99,,2013-05-13 22:12:00,
2013-05-13 17:23:00,76.0,76.0,30.07,SE,130,3.0,13.0,98,-99.99,,,-99.99,,2013-05-13 22:23:00,
2013-05-13 17:32:00,77.0,76.0,30.06,SW,235,5.0,10.0,99,-99.99,,,-99.99,,2013-05-13 22:32:00,
2013-05-13 17:43:00,77.0,-99.9,30.06,South,185,4.0,12.0,-999,-99.99,,,-99.99,,2013-05-13 22:43:00,
2013-05-13 17:52:00,77.0,-99.9,30.06,South,185,4.0,12.0,-999,-99.99,,,-99.99,,2013-05-13 22:52:00,
2013-05-13 18:12:00,78.0,77.0,30.05,WSW,245,4.0,7.0,99,-99.99,,,-99.99,,2013-05-13 23:12:00,
2013-05-13 18:23:00,78.0,77.0,30.05,WSW,245,4.0,7.0,99,-99.99,,,-99.99,,2013-05-13 23:23:00,
2013-05-13 18:34:00,78.0,-99.9,30.05,South,175,4.0,11.0,-999,-99.99,,,-99.99,,2013-05-13 23:34:00,
2013-05-13 18:42:00,77.0,-99.9,30.04,SW,230,6.0,13.0,-999,-99.99,,,-99.99,,2013-05-13 23:42:00,
2013-05-13 18:54:00,77.0,-99.9,30.04,SW,230,6.0,13.0,-999,-99.99,,,-99.99,,2013-05-13 23:54:00,
2013-05-13 19:03:00,77.0,-99.9,30.04,SE,145,3.0,12.0,-999,-99.99,,,-99.99,,2013-05-14 00:03:00,
2013-05-13 19:13:00,77.0,-99.9,30.03,SSE,165,3.0,11.0,-999,-99.99,,,-99.99,,2013-05-14 00:13:00,
2013-05-13 19:22:00,77.0,-99.9,30.03,SSE,165,3.0,11.0,-999,-99.99,,,-99.99,,2013-05-14 00:22:00,
2013-05-13 19:32:00,76.0,-99.9,30.02,SSE,150,4.0,11.0,-999,-99.99,,,-99.99,,2013-05-14 00:32:00,
2013-05-13 19:42:00,76.0,-99.9,30.02,South,190,4.0,9.0,-999,-99.99,,,-99.99,,2013-05-14 00:42:00,
2013-05-13 19:52:00,76.0,-99.9,30.02,South,190,4.0,9.0,-999,-99.99,,,-99.99,,2013-05-14 00:52:00,
2013-05-13 20:02:00,74.0,-99.9,30.03,South,185,4.0,8.0,-999,-99.99,,,-99.99,,2013-05-14 01:02:00,
2013-05-13 20:11:00,73.0,-99.9,30.03,SSE,165,4.0,11.0,-999,-99.99,,,-99.99,,2013-05-14 01:11:00,
2013-05-13 20:21:00,73.0,-99.9,30.03,SSE,165,4.0,11.0,-999,-99.99,,,-99.99,,2013-05-14 01:21:00,
2013-05-13 20:32:00,71.0,-99.9,30.04,South,190,2.0,6.0,-999,-99.99,,,-99.99,,2013-05-14 01:32:00,
2013-05-13 20:43:00,70.0,-99.9,30.04,SW,230,2.0,9.0,-999,-99.99,,,-99.99,,2013-05-14 01:43:00,
2013-05-13 20:53:00,70.0,-99.9,30.04,SW,230,2.0,9.0,-999,-99.99,,,-99.99,,2013-05-14 01:53:00,
2013-05-13 21:03:00,68.0,-99.9,30.03,South,175,4.0,9.0,-999,-99.99,,,-99.99,,2013-05-14 02:03:00,
2013-05-13 21:12:00,67.0,-99.9,30.03,SSW,205,2.0,6.0,-999,-99.99,,,-99.99,,2013-05-14 02:12:00,
2013-05-13 21:22:00,67.0,-99.9,30.03,SSW,205,2.0,6.0,-999,-99.99,,,-99.99,,2013-05-14 02:22:00,
2013-05-13 21:32:00,66.0,-99.9,30.03,SE,125,2.0,6.0,-999,-99.99,,,-99.99,,2013-05-14 02:32:00,
2013-05-13 21:42:00,66.0,-99.9,30.03,SSW,200,3.0,8.0,-999,-99.99,,,-99.99,,2013-05-14 02:42:00,
2013-05-13 21:52:00,66.0,-99.9,30.03,SSW,200,3.0,8.0,-999,-99.99,,,-99.99,,2013-05-14 02:52:00,
2013-05-13 22:00:00,64.0,-99.9,30.02,SSW,200,5.0,11.0,-999,-99.99,,,-99.99,,2013-05-14 03:00:00,
2013-05-13 22:01:00,65.0,-99.9,30.03,SSW,210,5.0,7.0,-999,-99.99,,,-99.99,,2013-05-14 03:01:00,
2013-05-13 22:11:00,65.0,-99.9,30.03,South,190,3.0,6.0,-999,-99.99,,,-99.99,,2013-05-14 03:11:00,
2013-05-13 22:22:00,65.0,-99.9,30.03,South,190,3.0,6.0,-999,-99.99,,,-99.99,,2013-05-14 03:22:00,
2013-05-13 22:33:00,64.0,-99.9,30.03,SSW,210,4.0,7.0,-999,-99.99,,,-99.99,,2013-05-14 03:33:00,
2013-05-13 22:43:00,64.0,-99.9,30.02,SSW,200,5.0,11.0,-999,-99.99,,,-99.99,,2013-05-14 03:43:00,
2013-05-13 22:53:00,64.0,-99.9,30.02,SSW,200,5.0,11.0,-999,-99.99,,,-99.99,,2013-05-14 03:53:00,
2013-05-13 23:13:00,63.0,-99.9,30.02,SSW,195,3.0,8.0,-999,-99.99,,,-99.99,,2013-05-14 04:13:00,
2013-05-13 23:23:00,63.0,-99.9,30.02,SSW,195,3.0,8.0,-999,-99.99,,,-99.99,,2013-05-14 04:23:00,
2013-05-13 23:33:00,62.0,-99.9,30.02,SSW,210,2.0,6.0,-999,-99.99,,,-99.99,,2013-05-14 04:33:00,
2013-05-13 23:43:00,62.0,-99.9,30.02,SSW,200,2.0,6.0,-999,-99.99,,,-99.99,,2013-05-14 04:43:00,
2013-05-13 23:53:00,62.0,-99.9,30.02,SSW,200,2.0,6.0,-999,-99.99,,,-99.99,,2013-05-14 04:53:00,